.
WxDataArchive / Data Records for 2015-05-28
2015-05-27 May 2015 2015-05-29

Data Records for Thursday, 28 May 2015

Time	Temp	Chill	HIndex	Humid	Dewpt	 Wind 	HiWind	WindDir	Rain 	Barom
-----	----	-----	------	-----	-----	------	------	-------	-----	-----
00:00	64.2	64.2	64.2	78	57.2	0	0	---	0.00	30.064 
00:05	64.0	64.0	64.0	79	57.4	0	0	---	0.00	30.064 
00:10	63.7	63.7	63.7	79	57.1	0	0	---	0.00	30.064 
00:15	63.4	63.4	63.4	80	57.1	0	0	---	0.00	30.077 
00:20	63.1	63.1	63.1	81	57.2	0	0	---	0.00	30.077 
00:25	62.7	62.7	62.7	81	56.8	0	0	---	0.00	30.077 
00:30	62.4	62.4	62.4	82	56.8	0	0	---	0.00	30.085 
00:35	62.1	62.1	62.1	82	56.5	0	0	---	0.00	30.085 
00:40	61.8	61.8	61.8	83	56.6	0	0	---	0.00	30.085 
00:45	61.6	61.6	61.6	83	56.4	0	0	---	0.00	30.087 
00:50	61.3	61.3	61.3	84	56.4	0	0	---	0.00	30.087 
00:55	60.9	60.9	60.9	84	56.0	0	0	---	0.00	30.087 
01:00	60.5	60.5	60.5	85	56.0	0	0	---	0.00	30.090 
01:05	60.2	60.2	60.2	86	56.0	0	0	---	0.00	30.090 
01:10	59.9	59.9	59.9	86	55.7	0	0	---	0.00	30.090 
01:15	59.6	59.6	59.6	87	55.7	0	0	---	0.00	30.105 
01:20	59.5	59.5	59.5	88	55.9	0	0	---	0.00	30.105 
01:25	59.3	59.3	59.3	88	55.7	0	0	---	0.00	30.105 
01:30	59.2	59.2	59.2	88	55.6	0	0	---	0.00	30.108 
01:35	59.0	59.0	59.0	89	55.8	0	0	---	0.00	30.108 
01:40	58.9	58.9	58.9	89	55.7	0	0	---	0.00	30.108 
01:45	58.7	58.7	58.7	89	55.5	0	0	---	0.00	30.112 
01:50	58.6	58.6	58.6	89	55.4	0	0	---	0.00	30.112 
01:55	58.4	58.4	58.4	90	55.5	0	0	---	0.00	30.112 
02:00	58.3	58.3	58.3	90	55.4	0	0	---	0.00	30.121 
02:05	58.1	58.1	58.1	90	55.2	0	0	---	0.00	30.121 
02:10	58.0	58.0	58.0	90	55.1	0	0	---	0.00	30.121 
02:15	57.8	57.8	57.8	90	54.9	0	0	---	0.00	30.124 
02:20	57.6	57.6	57.6	91	55.0	0	0	---	0.00	30.124 
02:25	57.5	57.5	57.5	91	54.9	0	0	---	0.00	30.124 
02:30	57.3	57.3	57.3	91	54.7	0	0	---	0.00	30.128 
02:35	57.3	57.3	57.3	91	54.7	0	0	---	0.00	30.128 
02:40	57.2	57.2	57.2	91	54.6	0	0	---	0.00	30.128 
02:45	57.0	57.0	57.0	91	54.4	0	0	---	0.00	30.137 
02:50	57.0	57.0	57.0	92	54.7	0	0	---	0.00	30.137 
02:55	56.9	56.9	56.9	92	54.6	0	0	---	0.00	30.137 
03:00	56.7	56.7	56.7	92	54.4	0	0	---	0.00	30.140 
03:05	56.6	56.6	56.6	92	54.3	0	0	---	0.00	30.140 
03:10	56.6	56.6	56.6	92	54.3	0	0	---	0.00	30.140 
03:15	56.5	56.5	56.5	92	54.2	0	0	---	0.00	30.136 
03:20	56.3	56.3	56.3	92	54.0	0	0	---	0.00	30.136 
03:25	56.3	56.3	56.3	92	54.0	0	0	---	0.00	30.136 
03:30	56.2	56.2	56.2	92	53.9	0	0	---	0.00	30.129 
03:35	56.0	56.0	56.0	92	53.7	0	0	---	0.00	30.129 
03:40	55.7	55.7	55.7	92	53.4	0	0	---	0.00	30.129 
03:45	55.6	55.6	55.6	92	53.3	0	0	---	0.00	30.129 
03:50	55.6	55.6	55.6	92	53.3	0	0	---	0.00	30.129 
03:55	55.6	55.6	55.6	92	53.3	0	0	---	0.00	30.129 
04:00	55.4	55.4	55.4	93	53.4	0	0	---	0.00	30.141 
04:05	55.4	55.4	55.4	93	53.4	0	0	---	0.00	30.141 
04:10	55.4	55.4	55.4	93	53.4	0	0	---	0.00	30.141 
04:15	55.3	55.3	55.3	93	53.3	0	0	---	0.00	30.139 
04:20	55.1	55.1	55.1	93	53.1	0	0	---	0.00	30.139 
04:25	55.1	55.1	55.1	93	53.1	0	0	---	0.00	30.139 
04:30	55.1	55.1	55.1	93	53.1	0	0	---	0.00	30.147 
04:35	55.0	55.0	55.0	93	53.0	0	0	---	0.00	30.147 
04:40	54.8	54.8	54.8	93	52.8	0	0	---	0.00	30.147 
04:45	54.8	54.8	54.8	93	52.8	0	0	---	0.00	30.151 
04:50	54.8	54.8	54.8	93	52.8	0	0	---	0.00	30.151 
04:55	54.8	54.8	54.8	93	52.8	0	0	---	0.00	30.151 
05:00	54.7	54.7	54.7	93	52.7	0	0	---	0.00	30.153 
05:05	54.7	54.7	54.7	94	53.0	0	0	---	0.00	30.153 
05:10	54.8	54.8	54.8	94	53.1	0	0	---	0.00	30.153 
05:15	54.8	54.8	54.8	94	53.1	0	0	---	0.00	30.155 
05:20	54.8	54.8	54.8	94	53.1	0	0	---	0.00	30.155 
05:25	54.8	54.8	54.8	94	53.1	0	0	---	0.00	30.155 
05:30	54.8	54.8	54.8	94	53.1	0	0	---	0.00	30.154 
05:35	54.8	54.8	54.8	94	53.1	0	0	---	0.00	30.154 
05:40	54.8	54.8	54.8	94	53.1	0	0	---	0.00	30.154 
05:45	54.8	54.8	54.8	94	53.1	0	0	---	0.00	30.154 
05:50	54.7	54.7	54.7	94	53.0	0	0	---	0.00	30.154 
05:55	54.5	54.5	54.5	94	52.8	0	0	---	0.00	30.154 
06:00	54.4	54.4	54.4	94	52.7	0	0	---	0.00	30.150 
06:05	54.2	54.2	54.2	94	52.5	0	0	---	0.00	30.150 
06:10	54.4	54.4	54.4	94	52.7	0	0	---	0.00	30.150 
06:15	54.5	54.5	54.5	94	52.8	0	0	---	0.00	30.156 
06:20	54.7	54.7	54.7	94	53.0	0	0	---	0.00	30.156 
06:25	54.7	54.7	54.7	94	53.0	0	0	---	0.00	30.156 
06:30	54.8	54.8	54.8	94	53.1	0	0	---	0.00	30.160 
06:35	55.0	55.0	55.0	95	53.6	0	0	---	0.00	30.160 
06:40	55.0	55.0	55.0	95	53.6	0	0	---	0.00	30.160 
06:45	55.1	55.1	55.1	95	53.7	0	0	---	0.00	30.167 
06:50	55.3	55.3	55.3	95	53.9	0	0	---	0.00	30.167 
06:55	55.3	55.3	55.3	95	53.9	0	0	---	0.00	30.167 
07:00	55.4	55.4	55.4	95	54.0	0	0	---	0.00	30.174 
07:05	55.4	55.4	55.4	95	54.0	0	0	---	0.00	30.174 
07:10	55.7	55.7	55.7	95	54.3	0	0	---	0.00	30.174 
07:15	56.2	56.2	56.2	95	54.8	0	0	---	0.00	30.176 
07:20	56.7	56.7	56.7	95	55.3	0	2	292	0.00	30.176 
07:25	57.3	57.3	57.3	95	55.9	0	1	292	0.00	30.176 
07:30	57.8	57.8	57.8	95	56.4	0	2	292	0.00	30.175 
07:35	58.3	58.3	58.3	95	56.9	0	0	---	0.00	30.175 
07:40	58.9	58.9	58.9	95	57.5	0	1	292	0.00	30.175 
07:45	59.3	59.3	59.3	94	57.6	0	1	292	0.00	30.177 
07:50	59.8	59.8	59.8	94	58.1	0	0	---	0.00	30.177 
07:55	60.4	60.4	60.4	93	58.4	0	2	292	0.00	30.177 
08:00	61.0	61.0	61.0	91	58.4	1	3	292	0.00	30.179 
08:05	61.5	61.5	61.5	89	58.2	1	3	292	0.00	30.179 
08:10	61.6	61.6	61.6	88	58.0	1	3	292	0.00	30.179 
08:15	62.1	62.1	62.1	87	58.2	1	3	292	0.00	30.178 
08:20	62.6	62.6	62.6	86	58.3	1	4	292	0.00	30.178 
08:25	63.2	63.2	63.2	85	58.6	0	3	292	0.00	30.178 
08:30	63.4	63.4	63.4	82	57.8	1	4	292	0.00	30.181 
08:35	63.9	63.9	63.9	82	58.3	0	3	292	0.00	30.181 
08:40	64.5	64.5	64.5	81	58.5	0	1	292	0.00	30.181 
08:45	65.0	65.0	65.0	80	58.7	0	1	292	0.00	30.187 
08:50	65.5	65.5	65.5	78	58.5	1	4	292	0.00	30.187 
08:55	65.5	65.5	65.5	78	58.5	2	6	90	0.00	30.187 
09:00	65.8	65.8	65.8	78	58.7	1	4	90	0.00	30.192 
09:05	66.1	66.1	66.1	78	59.0	1	3	90	0.00	30.192 
09:10	66.6	66.6	66.6	76	58.8	1	3	90	0.00	30.192 
09:15	66.9	66.9	66.9	76	59.1	1	3	90	0.00	30.196 
09:20	67.3	67.3	67.3	76	59.5	1	3	90	0.00	30.196 
09:25	67.8	67.8	67.8	75	59.6	0	3	90	0.00	30.196 
09:30	68.1	68.1	68.1	74	59.5	1	4	90	0.00	30.195 
09:35	68.4	68.4	68.4	74	59.8	0	2	90	0.00	30.195 
09:40	69.1	69.1	69.1	72	59.7	1	4	90	0.00	30.195 
09:45	69.3	69.3	69.3	73	60.3	1	4	90	0.00	30.194 
09:50	69.4	69.4	69.4	72	60.0	1	4	90	0.00	30.194 
09:55	69.8	69.8	69.8	72	60.4	1	3	90	0.00	30.194 
10:00	70.3	70.3	70.3	70	60.0	1	3	90	0.00	30.193 
10:05	70.8	70.8	70.8	69	60.1	1	4	90	0.00	30.193 
10:10	71.1	71.1	71.1	69	60.4	1	3	90	0.00	30.193 
10:15	71.1	71.1	71.1	69	60.4	1	5	90	0.00	30.197 
10:20	70.8	70.8	70.8	69	60.1	2	5	90	0.00	30.197 
10:25	70.6	70.6	70.6	72	61.1	2	5	90	0.00	30.197 
10:30	70.8	70.8	70.8	71	60.9	1	5	90	0.00	30.200 
10:35	70.9	70.9	70.9	70	60.6	2	5	90	0.00	30.200 
10:40	71.5	71.5	71.5	69	60.8	0	2	90	0.00	30.200 
10:45	71.8	71.8	71.8	67	60.2	1	4	90	0.00	30.207 
10:50	72.0	72.0	72.0	66	60.0	1	6	90	0.00	30.207 
10:55	72.3	72.3	72.3	68	61.1	1	3	68	0.00	30.207 
11:00	72.7	72.7	72.7	68	61.5	1	4	68	0.00	30.204 
11:05	73.2	73.2	73.2	65	60.7	1	3	68	0.00	30.204 
11:10	73.2	73.2	73.2	65	60.7	1	5	68	0.00	30.204 
11:15	73.5	73.5	73.5	64	60.6	1	4	90	0.00	30.205 
11:20	73.5	73.5	73.5	65	61.0	2	5	90	0.00	30.205 
11:25	73.2	73.2	73.2	66	61.1	2	5	68	0.00	30.205 
11:30	73.3	73.3	73.3	64	60.4	1	4	68	0.00	30.206 
11:35	73.7	73.7	73.7	63	60.3	2	6	90	0.00	30.206 
11:40	73.9	73.9	73.9	63	60.5	1	4	90	0.00	30.206 
11:45	74.0	74.0	74.0	64	61.0	2	4	90	0.00	30.208 
11:50	74.2	74.2	74.2	62	60.3	1	4	90	0.00	30.208 
11:55	74.4	74.4	74.4	62	60.5	2	4	90	0.00	30.208 
12:00	74.6	74.6	74.6	62	60.7	1	5	90	0.00	30.207 
12:05	74.9	74.9	74.9	62	61.0	1	3	90	0.00	30.207 
12:10	75.3	75.3	77.5	61	60.9	1	4	90	0.00	30.207 
12:15	75.3	75.3	77.5	62	61.4	2	7	90	0.00	30.209 
12:20	75.3	75.3	77.5	60	60.4	1	3	90	0.00	30.209 
12:25	75.3	75.3	77.5	62	61.4	2	6	68	0.00	30.209 
12:30	75.3	75.3	77.5	60	60.4	2	6	90	0.00	30.208 
12:35	75.4	75.4	77.5	62	61.5	1	6	90	0.00	30.208 
12:40	75.8	75.8	77.9	59	60.4	2	5	90	0.00	30.208 
12:45	75.6	75.6	77.7	61	61.2	2	4	90	0.00	30.208 
12:50	75.4	75.4	77.6	59	60.1	2	7	90	0.00	30.208 
12:55	75.3	75.3	77.5	60	60.4	2	5	90	0.00	30.208 
13:00	75.3	75.3	77.5	62	61.4	3	6	90	0.00	30.210 
13:05	75.6	75.6	77.7	60	60.7	2	5	90	0.00	30.210 
13:10	75.6	75.6	77.8	59	60.2	2	5	90	0.00	30.210 
13:15	75.8	75.8	77.9	58	59.9	3	9	90	0.00	30.202 
13:20	76.0	76.0	78.0	60	61.1	2	6	90	0.00	30.202 
13:25	76.1	76.1	78.1	58	60.2	3	9	90	0.00	30.202 
13:30	76.1	76.1	78.1	58	60.2	3	7	90	0.00	30.198 
13:35	76.3	76.3	78.3	57	59.9	2	6	68	0.00	30.198 
13:40	76.7	76.7	78.5	59	61.3	1	4	112	0.00	30.198 
13:45	76.3	76.3	78.2	58	60.4	3	7	112	0.00	30.195 
13:50	76.5	76.5	78.4	57	60.1	2	5	90	0.00	30.195 
13:55	76.8	76.8	78.6	58	60.9	1	4	90	0.00	30.195 
14:00	77.0	77.0	78.7	56	60.1	3	6	90	0.00	30.189 
14:05	77.6	77.6	79.2	57	61.1	2	3	90	0.00	30.189 
14:10	77.7	77.7	79.2	53	59.2	3	9	90	0.00	30.189 
14:15	77.7	77.7	79.2	55	60.2	1	4	112	0.00	30.180 
14:20	77.7	77.7	79.2	53	59.2	3	6	90	0.00	30.180 
14:25	77.9	77.9	79.4	55	60.4	2	5	90	0.00	30.180 
14:30	77.9	77.9	79.3	54	59.9	3	9	90	0.00	30.174 
14:35	78.1	78.1	79.5	55	60.6	1	6	112	0.00	30.174 
14:40	78.6	78.6	79.9	54	60.5	2	6	90	0.00	30.174 
14:45	78.6	78.6	79.8	53	60.0	2	5	90	0.00	30.164 
14:50	78.3	78.3	79.6	52	59.2	3	7	90	0.00	30.164 
14:55	78.1	78.1	79.4	52	59.0	2	10	90	0.00	30.164 
15:00	78.3	78.3	79.5	51	58.7	2	6	90	0.00	30.162 
15:05	78.6	78.6	79.8	52	59.5	2	6	90	0.00	30.162 
15:10	78.6	78.6	79.7	50	58.4	3	7	90	0.00	30.162 
15:15	79.0	79.0	80.0	50	58.7	2	5	68	0.00	30.154 
15:20	79.4	79.4	80.1	47	57.4	2	6	90	0.00	30.154 
15:25	79.8	79.8	80.5	48	58.3	2	7	90	0.00	30.154 
15:30	79.9	79.9	80.4	47	57.8	2	4	112	0.00	30.149 
15:35	80.1	80.1	80.6	47	58.0	3	7	90	0.00	30.149 
15:40	80.1	80.1	80.5	46	57.4	1	5	112	0.00	30.149 
15:45	80.1	80.1	80.7	48	58.6	2	6	112	0.00	30.150 
15:50	79.9	79.9	80.5	48	58.4	3	6	90	0.00	30.150 
15:55	79.9	79.9	80.5	48	58.4	1	5	112	0.00	30.150 
16:00	80.1	80.1	80.6	47	58.0	2	5	90	0.00	30.149 
16:05	80.3	80.3	80.8	47	58.2	2	5	68	0.00	30.149 
16:10	80.3	80.3	80.7	46	57.6	2	6	90	0.00	30.149 
16:15	79.9	79.9	80.3	45	56.6	3	8	90	0.00	30.145 
16:20	79.9	79.9	80.5	48	58.4	1	5	90	0.00	30.145 
16:25	79.9	79.9	80.4	46	57.2	3	7	90	0.00	30.145 
16:30	79.9	79.9	80.4	46	57.2	2	6	90	0.00	30.139 
16:35	80.3	80.3	80.9	48	58.8	1	5	158	0.00	30.139 
16:40	80.3	80.3	81.0	49	59.4	2	6	112	0.00	30.139 
16:45	80.5	80.5	80.9	47	58.4	2	6	112	0.00	30.129 
16:50	80.7	80.7	81.4	50	60.3	2	7	68	0.00	30.129 
16:55	80.7	80.7	81.2	48	59.2	2	7	90	0.00	30.129 
17:00	80.9	80.9	81.4	48	59.3	1	3	90	0.00	30.128 
17:05	80.9	80.9	81.4	48	59.3	2	4	135	0.00	30.128 
17:10	81.1	81.1	81.4	46	58.3	1	2	90	0.00	30.128 
17:15	80.9	80.9	81.4	48	59.3	2	6	68	0.00	30.127 
17:20	80.7	80.7	81.2	48	59.2	2	7	68	0.00	30.127 
17:25	80.7	80.7	81.1	47	58.6	1	6	68	0.00	30.127 
17:30	80.5	80.5	81.0	48	59.0	2	4	90	0.00	30.127 
17:35	80.1	80.1	80.8	49	59.2	2	5	68	0.00	30.127 
17:40	80.1	80.1	80.9	50	59.8	0	3	68	0.00	30.127 
17:45	80.3	80.3	80.9	48	58.8	2	6	90	0.00	30.119 
17:50	80.3	80.3	81.0	49	59.4	1	4	90	0.00	30.119 
17:55	79.9	79.9	80.5	48	58.4	3	7	90	0.00	30.119 
18:00	79.4	79.4	80.3	50	59.1	2	3	68	0.00	30.117 
18:05	79.4	79.4	80.4	51	59.7	1	4	45	0.00	30.117 
18:10	79.4	79.4	80.4	51	59.7	2	6	68	0.00	30.117 
18:15	79.4	79.4	80.1	48	58.0	1	3	68	0.00	30.115 
18:20	79.2	79.2	80.1	49	58.4	1	3	68	0.00	30.115 
18:25	79.2	79.2	80.1	49	58.4	1	4	68	0.00	30.115 
18:30	79.2	79.2	80.1	50	58.9	1	3	68	0.00	30.114 
18:35	78.8	78.8	79.8	50	58.6	2	4	90	0.00	30.114 
18:40	78.6	78.6	79.7	51	58.9	1	4	90	0.00	30.114 
18:45	78.6	78.6	79.8	53	60.0	1	2	90	0.00	30.106 
18:50	78.6	78.6	79.8	52	59.5	1	3	68	0.00	30.106 
18:55	78.8	78.8	80.0	53	60.2	1	3	68	0.00	30.106 
19:00	78.8	78.8	80.0	53	60.2	1	3	68	0.00	30.103 
19:05	78.6	78.6	79.8	53	60.0	2	6	90	0.00	30.103 
19:10	78.5	78.5	79.7	52	59.4	2	4	90	0.00	30.103 
19:15	78.5	78.5	79.8	53	59.9	1	4	90	0.00	30.100 
19:20	78.3	78.3	79.6	52	59.2	1	5	90	0.00	30.100 
19:25	78.1	78.1	79.5	54	60.1	0	2	112	0.00	30.100 
19:30	78.1	78.1	79.5	54	60.1	1	3	112	0.00	30.100 
19:35	78.1	78.1	79.5	53	59.6	1	4	112	0.00	30.100 
19:40	77.9	77.9	79.3	52	58.8	1	6	112	0.00	30.100 
19:45	77.7	77.7	79.1	52	58.6	2	4	90	0.00	30.099 
19:50	77.7	77.7	79.2	53	59.2	1	3	68	0.00	30.099 
19:55	77.6	77.6	79.1	54	59.6	1	4	90	0.00	30.099 
20:00	77.4	77.4	79.0	55	59.9	0	2	90	0.00	30.099 
20:05	77.0	77.0	78.7	55	59.6	1	4	90	0.00	30.099 
20:10	76.8	76.8	78.6	56	59.9	1	4	90	0.00	30.099 
20:15	76.5	76.5	78.4	56	59.6	1	4	90	0.00	30.095 
20:20	76.3	76.3	78.3	57	59.9	1	4	90	0.00	30.095 
20:25	76.1	76.1	78.1	57	59.7	1	4	90	0.00	30.095 
20:30	75.8	75.8	77.9	57	59.5	1	2	90	0.00	30.098 
20:35	75.6	75.6	77.8	58	59.8	0	1	90	0.00	30.098 
20:40	75.3	75.3	77.6	58	59.5	0	2	90	0.00	30.098 
20:45	75.1	75.1	77.5	58	59.3	1	3	90	0.00	30.099 
20:50	74.7	74.7	74.7	59	59.4	0	1	90	0.00	30.099 
20:55	74.6	74.6	74.6	60	59.8	0	0	---	0.00	30.099 
21:00	74.2	74.2	74.2	60	59.4	0	0	---	0.00	30.100 
21:05	73.9	73.9	73.9	61	59.6	0	0	---	0.00	30.100 
21:10	73.7	73.7	73.7	61	59.4	0	2	90	0.00	30.100 
21:15	73.5	73.5	73.5	62	59.7	0	1	90	0.00	30.096 
21:20	73.3	73.3	73.3	62	59.5	0	2	90	0.00	30.096 
21:25	73.2	73.2	73.2	62	59.4	0	1	90	0.00	30.096 
21:30	73.0	73.0	73.0	62	59.2	0	1	90	0.00	30.097 
21:35	72.8	72.8	72.8	62	59.0	1	6	68	0.00	30.097 
21:40	72.8	72.8	72.8	60	58.1	2	6	90	0.00	30.097 
21:45	73.0	73.0	73.0	60	58.3	2	4	68	0.00	30.102 
21:50	72.8	72.8	72.8	61	58.6	1	5	68	0.00	30.102 
21:55	72.7	72.7	72.7	62	58.9	1	3	90	0.00	30.102 
22:00	72.3	72.3	72.3	63	59.0	1	3	90	0.00	30.107 
22:05	72.0	72.0	72.0	64	59.1	0	3	90	0.00	30.107 
22:10	71.8	71.8	71.8	65	59.4	1	3	90	0.00	30.107 
22:15	71.5	71.5	71.5	66	59.5	1	5	90	0.00	30.109 
22:20	71.3	71.3	71.3	67	59.8	1	4	90	0.00	30.109 
22:25	70.9	70.9	70.9	68	59.8	1	3	68	0.00	30.109 
22:30	70.8	70.8	70.8	68	59.7	1	6	68	0.00	30.110 
22:35	70.6	70.6	70.6	69	59.9	1	4	68	0.00	30.110 
22:40	70.3	70.3	70.3	69	59.6	1	3	68	0.00	30.110 
22:45	70.1	70.1	70.1	70	59.8	1	3	68	0.00	30.112 
22:50	69.9	69.9	69.9	70	59.7	1	3	68	0.00	30.112 
22:55	69.8	69.8	69.8	71	60.0	1	3	68	0.00	30.112 
23:00	69.6	69.6	69.6	71	59.8	1	3	68	0.00	30.112 
23:05	69.4	69.4	69.4	72	60.0	0	3	68	0.00	30.112 
23:10	69.3	69.3	69.3	72	59.9	1	2	68	0.00	30.112 
23:15	68.9	68.9	68.9	73	59.9	1	5	68	0.00	30.109 
23:20	68.8	68.8	68.8	73	59.8	0	3	68	0.00	30.109 
23:25	68.6	68.6	68.6	74	60.0	1	5	90	0.00	30.109 
23:30	68.4	68.4	68.4	74	59.8	1	3	90	0.00	30.106 
23:35	68.3	68.3	68.3	75	60.1	0	2	90	0.00	30.106 
23:40	68.1	68.1	68.1	75	59.9	0	3	90	0.00	30.106 
23:45	67.8	67.8	67.8	76	59.9	1	3	90	0.00	30.106 
23:50	67.6	67.6	67.6	77	60.1	0	2	90	0.00	30.106 
23:55	67.4	67.4	67.4	77	59.9	0	2	90	0.00	30.106 

CoCoRaHS
IN-AL-39
A2 Web Hosting
Creative Commons License
GoDaddy
search engine by freefind advanced

loaded 2018-11-14 03:32:35 • last modified 2010-11-18 10:43:29
Privacy PolicyDisclaimer
• wx.awcolley.com is powered by PmWiki v.2002016 •
• all content (unless otherwise noted) © 2018 A W Colley